sensor_id;sensor_type;location;lat;lon;timestamp;pressure;altitude;pressure_sealevel;temperature;humidity
58668;BME280;59852;43.086;25.634;2023-02-19T00:01:13;98883.63;;;9.09;53.19
58668;BME280;59852;43.086;25.634;2023-02-19T00:03:38;98879.72;;;9.43;52.16
58668;BME280;59852;43.086;25.634;2023-02-19T00:06:05;98881.19;;;9.47;51.81
58668;BME280;59852;43.086;25.634;2023-02-19T00:08:32;98882.16;;;9.05;53.77
58668;BME280;59852;43.086;25.634;2023-02-19T00:11:01;98880.00;;;9.12;53.65
58668;BME280;59852;43.086;25.634;2023-02-19T00:13:27;98879.50;;;9.19;53.33
58668;BME280;59852;43.086;25.634;2023-02-19T00:15:52;98888.22;;;8.91;54.00
58668;BME280;59852;43.086;25.634;2023-02-19T00:18:18;98889.06;;;9.06;53.64
58668;BME280;59852;43.086;25.634;2023-02-19T00:20:43;98888.47;;;9.15;53.68
58668;BME280;59852;43.086;25.634;2023-02-19T00:23:08;98885.47;;;9.22;53.42
58668;BME280;59852;43.086;25.634;2023-02-19T00:25:37;98877.16;;;9.29;53.04
58668;BME280;59852;43.086;25.634;2023-02-19T00:28:02;98881.34;;;9.32;53.14
58668;BME280;59852;43.086;25.634;2023-02-19T00:30:28;98871.59;;;9.21;53.15
58668;BME280;59852;43.086;25.634;2023-02-19T00:32:53;98874.28;;;9.19;53.39
58668;BME280;59852;43.086;25.634;2023-02-19T00:35:19;98864.91;;;9.03;53.96
58668;BME280;59852;43.086;25.634;2023-02-19T00:37:44;98868.19;;;8.92;54.28
58668;BME280;59852;43.086;25.634;2023-02-19T00:40:10;98860.09;;;8.97;54.08
58668;BME280;59852;43.086;25.634;2023-02-19T00:42:35;98856.41;;;8.86;54.45
58668;BME280;59852;43.086;25.634;2023-02-19T00:45:01;98858.56;;;8.66;55.29
58668;BME280;59852;43.086;25.634;2023-02-19T00:47:26;98858.06;;;8.73;55.03
58668;BME280;59852;43.086;25.634;2023-02-19T00:49:51;98851.94;;;8.60;56.02
58668;BME280;59852;43.086;25.634;2023-02-19T00:52:17;98855.38;;;8.60;56.06
58668;BME280;59852;43.086;25.634;2023-02-19T00:54:42;98857.25;;;8.44;56.49
58668;BME280;59852;43.086;25.634;2023-02-19T00:57:07;98855.03;;;8.38;56.49
58668;BME280;59852;43.086;25.634;2023-02-19T00:59:33;98851.50;;;8.39;56.70
58668;BME280;59852;43.086;25.634;2023-02-19T01:01:58;98833.97;;;8.41;56.69
58668;BME280;59852;43.086;25.634;2023-02-19T01:04:23;98839.56;;;8.49;56.75
58668;BME280;59852;43.086;25.634;2023-02-19T01:06:49;98837.50;;;8.26;57.13
58668;BME280;59852;43.086;25.634;2023-02-19T01:09:14;98837.94;;;8.32;56.76
58668;BME280;59852;43.086;25.634;2023-02-19T01:11:39;98837.31;;;8.43;56.91
58668;BME280;59852;43.086;25.634;2023-02-19T01:14:05;98834.69;;;8.15;56.80
58668;BME280;59852;43.086;25.634;2023-02-19T01:16:30;98830.59;;;8.25;56.60
58668;BME280;59852;43.086;25.634;2023-02-19T01:18:56;98826.59;;;8.33;56.51
58668;BME280;59852;43.086;25.634;2023-02-19T01:21:22;98834.59;;;8.30;56.74
58668;BME280;59852;43.086;25.634;2023-02-19T01:23:49;98834.50;;;8.32;56.67
58668;BME280;59852;43.086;25.634;2023-02-19T01:26:16;98822.31;;;8.18;58.01
58668;BME280;59852;43.086;25.634;2023-02-19T01:28:42;98825.63;;;8.06;58.04
58668;BME280;59852;43.086;25.634;2023-02-19T01:31:08;98819.78;;;8.02;58.85
58668;BME280;59852;43.086;25.634;2023-02-19T01:33:35;98821.84;;;8.12;58.63
58668;BME280;59852;43.086;25.634;2023-02-19T01:36:04;98828.72;;;7.98;59.26
58668;BME280;59852;43.086;25.634;2023-02-19T01:38:30;98828.97;;;7.94;59.26
58668;BME280;59852;43.086;25.634;2023-02-19T01:40:57;98832.50;;;7.93;59.63
58668;BME280;59852;43.086;25.634;2023-02-19T01:43:22;98834.63;;;7.86;59.94
58668;BME280;59852;43.086;25.634;2023-02-19T01:45:47;98842.75;;;7.96;59.65
58668;BME280;59852;43.086;25.634;2023-02-19T01:48:17;98842.28;;;8.03;59.55
58668;BME280;59852;43.086;25.634;2023-02-19T01:50:46;98837.44;;;7.83;60.12
58668;BME280;59852;43.086;25.634;2023-02-19T01:53:13;98835.44;;;7.72;60.12
58668;BME280;59852;43.086;25.634;2023-02-19T01:55:41;98847.13;;;7.65;60.34
58668;BME280;59852;43.086;25.634;2023-02-19T01:58:07;98848.56;;;7.71;60.85
58668;BME280;59852;43.086;25.634;2023-02-19T02:00:33;98853.50;;;7.75;60.90
58668;BME280;59852;43.086;25.634;2023-02-19T02:02:58;98859.72;;;7.73;60.98
58668;BME280;59852;43.086;25.634;2023-02-19T02:07:53;98851.91;;;7.73;59.84
58668;BME280;59852;43.086;25.634;2023-02-19T02:10:36;98857.75;;;7.62;59.70
58668;BME280;59852;43.086;25.634;2023-02-19T02:13:02;98851.06;;;7.42;61.23
58668;BME280;59852;43.086;25.634;2023-02-19T02:15:28;98854.38;;;7.30;61.46
58668;BME280;59852;43.086;25.634;2023-02-19T02:18:01;98855.19;;;7.31;60.79
58668;BME280;59852;43.086;25.634;2023-02-19T02:20:35;98859.06;;;7.24;62.30
58668;BME280;59852;43.086;25.634;2023-02-19T02:23:13;98867.69;;;7.40;61.76
58668;BME280;59852;43.086;25.634;2023-02-19T02:28:27;98861.75;;;7.38;60.96
58668;BME280;59852;43.086;25.634;2023-02-19T02:30:58;98868.34;;;7.43;60.47
58668;BME280;59852;43.086;25.634;2023-02-19T02:33:36;98872.72;;;7.43;60.91
58668;BME280;59852;43.086;25.634;2023-02-19T02:36:08;98870.72;;;7.32;61.42
58668;BME280;59852;43.086;25.634;2023-02-19T02:38:35;98872.66;;;7.13;62.91
58668;BME280;59852;43.086;25.634;2023-02-19T02:41:02;98872.34;;;7.19;63.42
58668;BME280;59852;43.086;25.634;2023-02-19T02:43:28;98868.97;;;7.17;62.75
58668;BME280;59852;43.086;25.634;2023-02-19T02:45:53;98870.72;;;7.16;61.97
58668;BME280;59852;43.086;25.634;2023-02-19T02:50:49;98868.72;;;7.06;63.28
58668;BME280;59852;43.086;25.634;2023-02-19T02:53:17;98871.16;;;6.93;64.13
58668;BME280;59852;43.086;25.634;2023-02-19T02:56:03;98874.91;;;6.87;63.61
58668;BME280;59852;43.086;25.634;2023-02-19T02:58:28;98888.25;;;6.97;63.59
58668;BME280;59852;43.086;25.634;2023-02-19T03:01:14;98889.19;;;6.96;63.65
58668;BME280;59852;43.086;25.634;2023-02-19T03:04:00;98904.34;;;6.88;63.69
58668;BME280;59852;43.086;25.634;2023-02-19T03:06:28;98903.38;;;6.90;63.89
58668;BME280;59852;43.086;25.634;2023-02-19T03:09:00;98898.34;;;6.54;63.69
58668;BME280;59852;43.086;25.634;2023-02-19T03:11:28;98901.03;;;6.53;64.75
58668;BME280;59852;43.086;25.634;2023-02-19T03:14:15;98908.38;;;6.45;63.54
58668;BME280;59852;43.086;25.634;2023-02-19T03:17:02;98890.75;;;6.67;63.42
58668;BME280;59852;43.086;25.634;2023-02-19T03:19:49;98900.84;;;6.40;64.33
58668;BME280;59852;43.086;25.634;2023-02-19T03:22:17;98907.72;;;6.41;64.18
58668;BME280;59852;43.086;25.634;2023-02-19T03:24:54;98905.44;;;6.35;64.48
58668;BME280;59852;43.086;25.634;2023-02-19T03:27:40;98900.88;;;6.56;63.61
58668;BME280;59852;43.086;25.634;2023-02-19T03:30:08;98906.81;;;6.58;63.36
58668;BME280;59852;43.086;25.634;2023-02-19T03:32:37;98901.13;;;6.51;63.67
58668;BME280;59852;43.086;25.634;2023-02-19T03:35:12;98910.75;;;6.82;63.10
58668;BME280;59852;43.086;25.634;2023-02-19T03:40:04;98910.97;;;6.62;62.86
58668;BME280;59852;43.086;25.634;2023-02-19T03:45:15;98906.06;;;6.89;62.32
58668;BME280;59852;43.086;25.634;2023-02-19T03:47:50;98903.19;;;6.94;62.45
58668;BME280;59852;43.086;25.634;2023-02-19T04:00:17;98902.28;;;7.26;60.84
58668;BME280;59852;43.086;25.634;2023-02-19T04:02:49;98901.84;;;7.50;59.75
58668;BME280;59852;43.086;25.634;2023-02-19T04:05:19;98900.00;;;7.36;61.51
58668;BME280;59852;43.086;25.634;2023-02-19T04:07:47;98900.00;;;7.52;60.02
58668;BME280;59852;43.086;25.634;2023-02-19T04:10:14;98901.19;;;7.76;59.12
58668;BME280;59852;43.086;25.634;2023-02-19T04:12:41;98891.72;;;7.75;59.45
58668;BME280;59852;43.086;25.634;2023-02-19T04:15:12;98899.09;;;7.83;59.06
58668;BME280;59852;43.086;25.634;2023-02-19T04:17:43;98891.69;;;7.91;58.74
58668;BME280;59852;43.086;25.634;2023-02-19T04:20:09;98897.63;;;7.93;58.80
58668;BME280;59852;43.086;25.634;2023-02-19T04:22:37;98894.59;;;8.00;58.10
58668;BME280;59852;43.086;25.634;2023-02-19T04:25:03;98901.53;;;8.30;56.71
58668;BME280;59852;43.086;25.634;2023-02-19T04:27:28;98899.97;;;8.42;56.56
58668;BME280;59852;43.086;25.634;2023-02-19T04:29:54;98896.31;;;8.30;56.63
58668;BME280;59852;43.086;25.634;2023-02-19T04:32:19;98895.06;;;8.37;56.22
58668;BME280;59852;43.086;25.634;2023-02-19T04:34:45;98906.69;;;8.46;56.12
58668;BME280;59852;43.086;25.634;2023-02-19T04:37:10;98918.72;;;8.48;56.09
58668;BME280;59852;43.086;25.634;2023-02-19T04:39:35;98914.88;;;8.54;55.40
58668;BME280;59852;43.086;25.634;2023-02-19T04:42:01;98921.31;;;8.62;55.34
58668;BME280;59852;43.086;25.634;2023-02-19T04:44:26;98923.34;;;8.72;55.26
58668;BME280;59852;43.086;25.634;2023-02-19T04:46:51;98930.09;;;8.76;54.67
58668;BME280;59852;43.086;25.634;2023-02-19T04:49:17;98924.47;;;8.53;55.90
58668;BME280;59852;43.086;25.634;2023-02-19T04:51:42;98925.84;;;8.45;56.00
58668;BME280;59852;43.086;25.634;2023-02-19T04:54:07;98923.94;;;8.32;57.04
58668;BME280;59852;43.086;25.634;2023-02-19T04:56:33;98935.91;;;8.37;56.92
58668;BME280;59852;43.086;25.634;2023-02-19T04:58:58;98942.81;;;8.38;56.35
58668;BME280;59852;43.086;25.634;2023-02-19T05:01:24;98950.53;;;8.39;56.23
58668;BME280;59852;43.086;25.634;2023-02-19T05:03:49;98947.41;;;8.32;56.53
58668;BME280;59852;43.086;25.634;2023-02-19T05:06:15;98953.53;;;8.47;56.01
58668;BME280;59852;43.086;25.634;2023-02-19T05:08:41;98953.72;;;8.58;55.33
58668;BME280;59852;43.086;25.634;2023-02-19T05:11:07;98967.59;;;8.73;55.02
58668;BME280;59852;43.086;25.634;2023-02-19T05:13:32;98965.38;;;8.81;55.01
58668;BME280;59852;43.086;25.634;2023-02-19T05:16:02;98981.94;;;8.80;55.04
58668;BME280;59852;43.086;25.634;2023-02-19T05:18:28;98981.75;;;8.69;55.50
58668;BME280;59852;43.086;25.634;2023-02-19T05:20:53;98981.69;;;8.85;54.91
58668;BME280;59852;43.086;25.634;2023-02-19T05:23:19;98985.41;;;8.95;55.08
58668;BME280;59852;43.086;25.634;2023-02-19T05:25:44;98990.69;;;9.36;53.58
58668;BME280;59852;43.086;25.634;2023-02-19T05:28:10;98990.69;;;9.77;52.75
58668;BME280;59852;43.086;25.634;2023-02-19T05:30:42;98992.22;;;9.94;51.89
58668;BME280;59852;43.086;25.634;2023-02-19T05:33:07;98993.69;;;9.98;51.48
58668;BME280;59852;43.086;25.634;2023-02-19T05:35:33;98994.38;;;9.88;52.05
58668;BME280;59852;43.086;25.634;2023-02-19T05:37:58;99000.44;;;9.88;51.82
58668;BME280;59852;43.086;25.634;2023-02-19T05:40:23;99007.91;;;9.94;52.48
58668;BME280;59852;43.086;25.634;2023-02-19T05:42:49;99020.53;;;10.54;50.42
58668;BME280;59852;43.086;25.634;2023-02-19T05:45:14;99031.44;;;11.25;48.46
58668;BME280;59852;43.086;25.634;2023-02-19T05:47:39;99032.28;;;10.74;49.96
58668;BME280;59852;43.086;25.634;2023-02-19T05:50:05;99034.44;;;10.55;49.99
58668;BME280;59852;43.086;25.634;2023-02-19T05:52:30;99038.72;;;10.43;49.64
58668;BME280;59852;43.086;25.634;2023-02-19T05:54:55;99051.41;;;10.62;49.29
58668;BME280;59852;43.086;25.634;2023-02-19T05:57:21;99046.31;;;11.11;48.65
58668;BME280;59852;43.086;25.634;2023-02-19T05:59:46;99061.34;;;11.59;47.65
58668;BME280;59852;43.086;25.634;2023-02-19T06:02:11;99051.88;;;13.00;43.78
58668;BME280;59852;43.086;25.634;2023-02-19T06:04:37;99057.44;;;13.53;42.74
58668;BME280;59852;43.086;25.634;2023-02-19T06:07:02;99055.91;;;13.39;42.48
58668;BME280;59852;43.086;25.634;2023-02-19T06:09:27;99061.31;;;14.03;41.28
58668;BME280;59852;43.086;25.634;2023-02-19T06:11:52;99065.84;;;14.01;41.23
58668;BME280;59852;43.086;25.634;2023-02-19T06:14:18;99076.88;;;13.84;41.08
58668;BME280;59852;43.086;25.634;2023-02-19T06:16:43;99075.59;;;13.33;42.21
58668;BME280;59852;43.086;25.634;2023-02-19T06:19:08;99069.63;;;13.20;43.00
58668;BME280;59852;43.086;25.634;2023-02-19T06:21:34;99074.88;;;14.30;40.41
58668;BME280;59852;43.086;25.634;2023-02-19T06:24:03;99068.66;;;14.84;39.11
58668;BME280;59852;43.086;25.634;2023-02-19T06:26:28;99077.63;;;15.44;38.09
58668;BME280;59852;43.086;25.634;2023-02-19T06:28:53;99076.59;;;16.06;36.84
58668;BME280;59852;43.086;25.634;2023-02-19T06:31:19;99080.53;;;15.20;38.29
58668;BME280;59852;43.086;25.634;2023-02-19T06:33:45;99075.81;;;13.97;41.07
58668;BME280;59852;43.086;25.634;2023-02-19T06:36:15;99086.78;;;12.78;44.27
58668;BME280;59852;43.086;25.634;2023-02-19T06:38:40;99087.78;;;12.53;45.12
58668;BME280;59852;43.086;25.634;2023-02-19T06:41:06;99093.72;;;12.20;46.30
58668;BME280;59852;43.086;25.634;2023-02-19T06:43:32;99095.41;;;12.08;46.94
58668;BME280;59852;43.086;25.634;2023-02-19T06:45:58;99089.91;;;11.87;47.62
58668;BME280;59852;43.086;25.634;2023-02-19T06:48:24;99073.03;;;11.78;47.61
58668;BME280;59852;43.086;25.634;2023-02-19T06:50:50;99076.81;;;11.87;47.99
58668;BME280;59852;43.086;25.634;2023-02-19T06:53:15;99083.72;;;11.88;47.68
58668;BME280;59852;43.086;25.634;2023-02-19T06:55:40;99078.50;;;11.75;48.46
58668;BME280;59852;43.086;25.634;2023-02-19T06:58:06;99081.47;;;11.71;48.81
58668;BME280;59852;43.086;25.634;2023-02-19T07:00:33;99070.13;;;11.58;49.40
58668;BME280;59852;43.086;25.634;2023-02-19T07:02:59;99060.91;;;11.65;48.62
58668;BME280;59852;43.086;25.634;2023-02-19T07:05:24;99075.03;;;11.75;49.22
58668;BME280;59852;43.086;25.634;2023-02-19T07:07:49;99074.19;;;11.74;50.00
58668;BME280;59852;43.086;25.634;2023-02-19T07:10:15;99068.16;;;12.11;49.64
58668;BME280;59852;43.086;25.634;2023-02-19T07:12:40;99064.94;;;12.77;48.08
58668;BME280;59852;43.086;25.634;2023-02-19T07:15:06;99075.94;;;12.47;49.45
58668;BME280;59852;43.086;25.634;2023-02-19T07:17:32;99074.56;;;12.66;49.17
58668;BME280;59852;43.086;25.634;2023-02-19T07:19:58;99068.22;;;12.92;48.47
58668;BME280;59852;43.086;25.634;2023-02-19T07:22:23;99064.28;;;12.98;48.95
58668;BME280;59852;43.086;25.634;2023-02-19T07:24:48;99065.19;;;13.20;48.52
58668;BME280;59852;43.086;25.634;2023-02-19T07:27:13;99068.53;;;13.45;47.04
58668;BME280;59852;43.086;25.634;2023-02-19T07:29:39;99056.34;;;13.66;46.43
58668;BME280;59852;43.086;25.634;2023-02-19T07:32:04;99057.75;;;13.93;46.69
58668;BME280;59852;43.086;25.634;2023-02-19T07:34:29;99055.47;;;13.99;45.48
58668;BME280;59852;43.086;25.634;2023-02-19T07:36:55;99063.88;;;14.25;45.25
58668;BME280;59852;43.086;25.634;2023-02-19T07:39:20;99071.34;;;14.52;44.24
58668;BME280;59852;43.086;25.634;2023-02-19T07:41:45;99069.13;;;15.41;42.18
58668;BME280;59852;43.086;25.634;2023-02-19T07:44:11;99067.94;;;15.03;43.15
58668;BME280;59852;43.086;25.634;2023-02-19T07:46:40;99077.34;;;15.47;41.78
58668;BME280;59852;43.086;25.634;2023-02-19T07:49:05;99072.09;;;15.78;40.78
58668;BME280;59852;43.086;25.634;2023-02-19T07:51:31;99070.13;;;15.49;41.55
58668;BME280;59852;43.086;25.634;2023-02-19T07:53:56;99072.72;;;16.11;40.20
58668;BME280;59852;43.086;25.634;2023-02-19T07:56:22;99053.28;;;16.31;40.05
58668;BME280;59852;43.086;25.634;2023-02-19T07:58:47;99062.94;;;17.64;37.89
58668;BME280;59852;43.086;25.634;2023-02-19T08:01:13;99068.06;;;16.91;40.11
58668;BME280;59852;43.086;25.634;2023-02-19T08:03:39;99061.94;;;16.62;39.10
58668;BME280;59852;43.086;25.634;2023-02-19T08:06:05;99066.34;;;15.73;40.87
58668;BME280;59852;43.086;25.634;2023-02-19T08:08:30;99050.59;;;17.18;40.39
58668;BME280;59852;43.086;25.634;2023-02-19T08:10:58;99068.69;;;16.06;39.92
58668;BME280;59852;43.086;25.634;2023-02-19T08:13:42;99052.00;;;17.12;38.05
58668;BME280;59852;43.086;25.634;2023-02-19T08:16:09;99060.88;;;17.31;38.42
58668;BME280;59852;43.086;25.634;2023-02-19T08:18:34;99059.56;;;16.69;38.95
58668;BME280;59852;43.086;25.634;2023-02-19T08:21:00;99060.66;;;16.56;39.00
58668;BME280;59852;43.086;25.634;2023-02-19T08:23:26;99057.88;;;16.58;38.70
58668;BME280;59852;43.086;25.634;2023-02-19T08:25:52;99062.66;;;17.20;37.78
58668;BME280;59852;43.086;25.634;2023-02-19T08:28:18;99055.09;;;19.33;34.45
58668;BME280;59852;43.086;25.634;2023-02-19T08:30:44;99053.06;;;17.19;37.91
58668;BME280;59852;43.086;25.634;2023-02-19T08:33:10;99048.28;;;17.42;37.57
58668;BME280;59852;43.086;25.634;2023-02-19T08:35:36;99048.00;;;17.45;37.90
58668;BME280;59852;43.086;25.634;2023-02-19T08:38:01;99045.31;;;17.55;36.61
58668;BME280;59852;43.086;25.634;2023-02-19T08:40:27;99037.31;;;17.37;37.86
58668;BME280;59852;43.086;25.634;2023-02-19T08:42:52;99042.84;;;16.97;38.72
58668;BME280;59852;43.086;25.634;2023-02-19T08:45:18;99041.63;;;16.91;38.77
58668;BME280;59852;43.086;25.634;2023-02-19T08:47:43;99047.47;;;16.76;39.89
58668;BME280;59852;43.086;25.634;2023-02-19T08:50:09;99026.13;;;17.06;38.64
58668;BME280;59852;43.086;25.634;2023-02-19T08:52:34;99033.56;;;16.83;39.83
58668;BME280;59852;43.086;25.634;2023-02-19T08:55:00;99031.75;;;16.84;39.45
58668;BME280;59852;43.086;25.634;2023-02-19T08:57:26;99025.34;;;16.67;40.15
58668;BME280;59852;43.086;25.634;2023-02-19T08:59:53;99018.97;;;16.50;40.15
58668;BME280;59852;43.086;25.634;2023-02-19T09:02:18;99018.00;;;16.32;41.07
58668;BME280;59852;43.086;25.634;2023-02-19T09:04:44;99020.38;;;16.45;41.03
58668;BME280;59852;43.086;25.634;2023-02-19T09:07:10;99022.44;;;16.51;40.68
58668;BME280;59852;43.086;25.634;2023-02-19T09:09:36;99024.81;;;16.44;40.84
58668;BME280;59852;43.086;25.634;2023-02-19T09:12:05;99024.00;;;16.34;41.54
58668;BME280;59852;43.086;25.634;2023-02-19T09:14:31;99020.63;;;16.32;40.99
58668;BME280;59852;43.086;25.634;2023-02-19T09:16:57;99024.97;;;16.33;41.83
58668;BME280;59852;43.086;25.634;2023-02-19T09:19:22;99022.72;;;16.38;42.02
58668;BME280;59852;43.086;25.634;2023-02-19T09:21:48;99021.06;;;16.37;41.62
58668;BME280;59852;43.086;25.634;2023-02-19T09:24:13;99013.00;;;16.19;41.53
58668;BME280;59852;43.086;25.634;2023-02-19T09:26:38;99017.59;;;16.27;41.42
58668;BME280;59852;43.086;25.634;2023-02-19T09:29:04;99020.22;;;16.27;41.26
58668;BME280;59852;43.086;25.634;2023-02-19T09:31:29;99012.59;;;16.33;41.91
58668;BME280;59852;43.086;25.634;2023-02-19T09:33:55;99014.25;;;16.34;41.62
58668;BME280;59852;43.086;25.634;2023-02-19T09:36:20;99008.41;;;16.31;42.27
58668;BME280;59852;43.086;25.634;2023-02-19T09:38:45;99010.78;;;16.44;41.03
58668;BME280;59852;43.086;25.634;2023-02-19T09:41:16;99000.50;;;16.41;41.63
58668;BME280;59852;43.086;25.634;2023-02-19T09:43:42;99007.72;;;16.48;41.00
58668;BME280;59852;43.086;25.634;2023-02-19T09:46:17;98994.53;;;16.19;41.03
58668;BME280;59852;43.086;25.634;2023-02-19T09:48:46;98985.63;;;16.30;41.29
58668;BME280;59852;43.086;25.634;2023-02-19T09:51:11;98997.44;;;16.35;41.45
58668;BME280;59852;43.086;25.634;2023-02-19T09:53:42;98995.94;;;16.43;41.33
58668;BME280;59852;43.086;25.634;2023-02-19T09:56:08;98988.41;;;16.38;42.18
58668;BME280;59852;43.086;25.634;2023-02-19T09:58:40;98988.94;;;16.51;41.51
58668;BME280;59852;43.086;25.634;2023-02-19T10:01:08;98989.38;;;16.56;41.24
58668;BME280;59852;43.086;25.634;2023-02-19T10:03:36;98981.16;;;16.59;41.10
58668;BME280;59852;43.086;25.634;2023-02-19T10:06:06;98975.06;;;16.40;41.42
58668;BME280;59852;43.086;25.634;2023-02-19T10:08:33;98979.19;;;16.61;41.58
58668;BME280;59852;43.086;25.634;2023-02-19T10:10:59;98971.44;;;16.50;41.67
58668;BME280;59852;43.086;25.634;2023-02-19T10:13:29;98970.06;;;16.56;41.39
58668;BME280;59852;43.086;25.634;2023-02-19T10:15:57;98961.44;;;16.63;41.26
58668;BME280;59852;43.086;25.634;2023-02-19T10:18:23;98958.81;;;16.44;41.24
58668;BME280;59852;43.086;25.634;2023-02-19T10:20:50;98957.81;;;16.74;41.78
58668;BME280;59852;43.086;25.634;2023-02-19T10:23:16;98951.84;;;16.72;41.35
58668;BME280;59852;43.086;25.634;2023-02-19T10:25:44;98963.09;;;16.55;41.62
58668;BME280;59852;43.086;25.634;2023-02-19T10:28:11;98945.59;;;16.73;41.71
58668;BME280;59852;43.086;25.634;2023-02-19T10:30:38;98946.56;;;16.72;41.26
58668;BME280;59852;43.086;25.634;2023-02-19T10:33:12;98937.91;;;16.80;40.52
58668;BME280;59852;43.086;25.634;2023-02-19T10:38:16;98934.38;;;16.99;41.24
58668;BME280;59852;43.086;25.634;2023-02-19T10:40:43;98928.09;;;17.00;40.85
58668;BME280;59852;43.086;25.634;2023-02-19T10:43:12;98918.13;;;16.94;40.59
58668;BME280;59852;43.086;25.634;2023-02-19T10:45:46;98925.88;;;17.05;40.15
58668;BME280;59852;43.086;25.634;2023-02-19T10:48:22;98924.47;;;17.01;40.88
58668;BME280;59852;43.086;25.634;2023-02-19T10:50:51;98922.41;;;17.04;40.31
58668;BME280;59852;43.086;25.634;2023-02-19T10:53:21;98925.06;;;16.95;40.90
58668;BME280;59852;43.086;25.634;2023-02-19T10:56:06;98913.69;;;16.94;40.37
58668;BME280;59852;43.086;25.634;2023-02-19T10:58:31;98919.09;;;16.92;40.55
58668;BME280;59852;43.086;25.634;2023-02-19T11:03:39;98915.72;;;17.28;39.94
58668;BME280;59852;43.086;25.634;2023-02-19T11:06:05;98907.03;;;17.17;40.50
58668;BME280;59852;43.086;25.634;2023-02-19T11:08:38;98902.34;;;17.11;39.92
58668;BME280;59852;43.086;25.634;2023-02-19T11:11:09;98907.91;;;17.08;40.30
58668;BME280;59852;43.086;25.634;2023-02-19T11:13:35;98900.31;;;16.96;39.91
58668;BME280;59852;43.086;25.634;2023-02-19T11:16:02;98899.44;;;17.05;39.53
58668;BME280;59852;43.086;25.634;2023-02-19T11:18:29;98896.06;;;17.12;39.69
58668;BME280;59852;43.086;25.634;2023-02-19T11:20:56;98903.75;;;17.06;39.31
58668;BME280;59852;43.086;25.634;2023-02-19T11:23:28;98905.88;;;17.20;39.31
58668;BME280;59852;43.086;25.634;2023-02-19T11:25:55;98906.53;;;17.04;39.12
58668;BME280;59852;43.086;25.634;2023-02-19T11:30:47;98898.06;;;17.01;39.44
58668;BME280;59852;43.086;25.634;2023-02-19T11:33:17;98891.97;;;16.90;39.67
58668;BME280;59852;43.086;25.634;2023-02-19T11:35:51;98890.28;;;16.72;40.03
58668;BME280;59852;43.086;25.634;2023-02-19T11:38:18;98891.09;;;16.72;39.92
58668;BME280;59852;43.086;25.634;2023-02-19T11:46:07;98891.19;;;16.80;39.91
58668;BME280;59852;43.086;25.634;2023-02-19T11:48:50;98886.63;;;16.82;39.28
58668;BME280;59852;43.086;25.634;2023-02-19T11:56:33;98880.91;;;16.77;39.83
58668;BME280;59852;43.086;25.634;2023-02-19T12:04:28;98877.72;;;16.83;39.65
58668;BME280;59852;43.086;25.634;2023-02-19T12:09:27;98876.47;;;16.78;40.31
58668;BME280;59852;43.086;25.634;2023-02-19T12:14:42;98864.16;;;16.96;39.95
58668;BME280;59852;43.086;25.634;2023-02-19T12:17:16;98858.09;;;16.86;40.05
58668;BME280;59852;43.086;25.634;2023-02-19T12:19:53;98872.28;;;16.85;40.12
58668;BME280;59852;43.086;25.634;2023-02-19T12:33:00;98868.41;;;16.79;40.24
58668;BME280;59852;43.086;25.634;2023-02-19T12:43:16;98853.19;;;16.91;40.59
58668;BME280;59852;43.086;25.634;2023-02-19T12:50:36;98837.53;;;17.07;40.37
58668;BME280;59852;43.086;25.634;2023-02-19T12:53:46;98835.66;;;17.17;40.85
58668;BME280;59852;43.086;25.634;2023-02-19T12:55:51;98829.44;;;17.09;40.11
58668;BME280;59852;43.086;25.634;2023-02-19T12:59:00;98830.69;;;17.14;40.26
58668;BME280;59852;43.086;25.634;2023-02-19T13:01:06;98816.94;;;17.11;40.51
58668;BME280;59852;43.086;25.634;2023-02-19T13:03:39;98821.25;;;17.12;40.61
58668;BME280;59852;43.086;25.634;2023-02-19T13:08:46;98817.81;;;17.02;40.45
58668;BME280;59852;43.086;25.634;2023-02-19T13:11:15;98813.81;;;16.98;40.25
58668;BME280;59852;43.086;25.634;2023-02-19T13:13:46;98811.41;;;16.77;40.80
58668;BME280;59852;43.086;25.634;2023-02-19T13:16:16;98816.31;;;16.72;40.92
58668;BME280;59852;43.086;25.634;2023-02-19T13:18:44;98812.25;;;16.68;40.84
58668;BME280;59852;43.086;25.634;2023-02-19T13:21:10;98802.13;;;16.73;40.72
58668;BME280;59852;43.086;25.634;2023-02-19T13:23:37;98805.34;;;16.57;41.84
58668;BME280;59852;43.086;25.634;2023-02-19T13:36:46;98789.91;;;16.72;40.65
58668;BME280;59852;43.086;25.634;2023-02-19T13:39:13;98790.03;;;16.60;40.95
58668;BME280;59852;43.086;25.634;2023-02-19T13:41:40;98789.97;;;16.52;40.96
58668;BME280;59852;43.086;25.634;2023-02-19T13:44:07;98778.47;;;16.44;41.73
58668;BME280;59852;43.086;25.634;2023-02-19T13:46:40;98776.16;;;16.58;41.20
58668;BME280;59852;43.086;25.634;2023-02-19T13:51:50;98770.88;;;16.68;40.99
58668;BME280;59852;43.086;25.634;2023-02-19T13:54:20;98769.81;;;16.79;40.76
58668;BME280;59852;43.086;25.634;2023-02-19T13:56:47;98765.44;;;16.70;41.04
58668;BME280;59852;43.086;25.634;2023-02-19T14:14:42;98754.06;;;16.59;40.67
58668;BME280;59852;43.086;25.634;2023-02-19T14:24:52;98756.00;;;16.30;41.62
58668;BME280;59852;43.086;25.634;2023-02-19T14:27:19;98757.56;;;16.23;41.86
58668;BME280;59852;43.086;25.634;2023-02-19T14:29:45;98750.22;;;16.17;42.31
58668;BME280;59852;43.086;25.634;2023-02-19T14:32:17;98752.69;;;16.28;41.84
58668;BME280;59852;43.086;25.634;2023-02-19T14:34:44;98757.06;;;16.10;42.93
58668;BME280;59852;43.086;25.634;2023-02-19T14:37:15;98749.44;;;16.06;42.90
58668;BME280;59852;43.086;25.634;2023-02-19T14:39:42;98747.66;;;15.97;43.13
58668;BME280;59852;43.086;25.634;2023-02-19T14:42:19;98754.31;;;15.92;43.36
58668;BME280;59852;43.086;25.634;2023-02-19T14:44:47;98748.66;;;15.87;43.52
58668;BME280;59852;43.086;25.634;2023-02-19T14:47:15;98751.59;;;15.84;43.61
58668;BME280;59852;43.086;25.634;2023-02-19T14:52:33;98746.44;;;15.82;43.46
58668;BME280;59852;43.086;25.634;2023-02-19T14:55:00;98738.28;;;15.75;43.86